createdAt,value
2022-08-21T00:02:30.534Z,18.40
2022-08-21T00:05:00.316Z,18.46
2022-08-21T00:07:30.083Z,18.39
2022-08-21T00:10:00.161Z,18.37
2022-08-21T00:12:29.980Z,18.27
2022-08-21T00:15:00.394Z,18.26
2022-08-21T00:17:30.308Z,18.26
2022-08-21T00:20:00.078Z,18.13
2022-08-21T00:22:30.145Z,18.13
2022-08-21T00:24:59.659Z,18.24
2022-08-21T00:27:29.503Z,18.32
2022-08-21T00:29:59.269Z,18.20
2022-08-21T00:32:29.983Z,18.19
2022-08-21T00:34:59.912Z,18.16
2022-08-21T00:37:30.022Z,18.08
2022-08-21T00:40:00.865Z,18.08
2022-08-21T00:42:31.818Z,18.19
2022-08-21T00:45:02.405Z,18.00
2022-08-21T00:47:32.176Z,18.14
2022-08-21T00:50:02.020Z,18.04
2022-08-21T00:52:34.696Z,18.06
2022-08-21T00:55:06.138Z,17.90
2022-08-21T00:57:46.816Z,17.97
2022-08-21T01:00:19.607Z,17.92
2022-08-21T01:02:49.688Z,17.86
2022-08-21T01:05:19.507Z,17.93
2022-08-21T01:07:49.343Z,18.03
2022-08-21T01:10:24.122Z,18.00
2022-08-21T01:12:56.822Z,17.65
2022-08-21T01:15:29.812Z,17.72
2022-08-21T01:18:00.355Z,17.78
2022-08-21T01:20:32.395Z,17.79
2022-08-21T01:23:06.620Z,17.66
2022-08-21T01:25:37.592Z,17.70
2022-08-21T01:28:11.320Z,17.75
2022-08-21T01:30:44.194Z,17.82
2022-08-21T01:33:14.032Z,17.79
2022-08-21T01:35:43.815Z,17.63
2022-08-21T01:38:13.396Z,17.50
2022-08-21T01:40:43.207Z,17.51
2022-08-21T01:43:13.295Z,17.53
2022-08-21T01:45:43.454Z,17.36
2022-08-21T01:48:13.369Z,17.38
2022-08-21T01:50:43.222Z,17.36
2022-08-21T01:53:12.779Z,17.30
2022-08-21T01:55:43.826Z,17.27
2022-08-21T01:58:13.693Z,17.37
2022-08-21T02:00:44.089Z,17.34
2022-08-21T02:03:13.870Z,17.34
2022-08-21T02:05:45.350Z,17.25
2022-08-21T02:08:15.142Z,17.15
2022-08-21T02:10:49.094Z,17.29
2022-08-21T02:13:16.395Z,17.30
2022-08-21T02:15:46.438Z,17.16
2022-08-21T02:18:16.253Z,17.22
2022-08-21T02:20:49.044Z,17.19
2022-08-21T02:23:20.518Z,17.13
2022-08-21T02:25:52.027Z,17.02
2022-08-21T02:28:21.502Z,17.16
2022-08-21T02:30:51.735Z,16.97
2022-08-21T02:33:22.213Z,16.93
2022-08-21T02:35:52.805Z,16.87
2022-08-21T02:38:25.687Z,16.86
2022-08-21T02:40:56.246Z,16.94
2022-08-21T02:43:28.042Z,16.88
2022-08-21T02:45:59.582Z,16.96
2022-08-21T02:48:32.318Z,16.92
2022-08-21T02:51:07.901Z,16.76
2022-08-21T02:53:37.638Z,16.90
2022-08-21T02:56:12.140Z,16.83
2022-08-21T02:58:44.945Z,16.83
2022-08-21T03:01:15.440Z,16.82
2022-08-21T03:03:47.339Z,16.85
2022-08-21T03:06:18.047Z,16.95
2022-08-21T03:08:48.186Z,16.83
2022-08-21T03:11:18.382Z,16.82
2022-08-21T03:13:48.323Z,16.76
2022-08-21T03:16:19.607Z,16.71
2022-08-21T03:18:49.550Z,16.75
2022-08-21T03:21:20.027Z,16.79
2022-08-21T03:23:49.508Z,16.78
2022-08-21T03:26:20.049Z,16.82
2022-08-21T03:28:51.781Z,16.83
2022-08-21T03:31:22.418Z,16.80
2022-08-21T03:33:53.909Z,16.70
2022-08-21T03:36:23.809Z,16.69
2022-08-21T03:38:53.599Z,16.67
2022-08-21T03:41:23.445Z,16.67
2022-08-21T03:43:53.217Z,16.64
2022-08-21T03:46:22.988Z,16.42
2022-08-21T03:48:53.556Z,16.50
2022-08-21T03:51:23.691Z,16.57
2022-08-21T03:53:53.640Z,16.57
2022-08-21T03:56:23.321Z,16.53
2022-08-21T03:58:53.484Z,16.60
2022-08-21T04:01:23.105Z,16.59
2022-08-21T04:03:52.624Z,16.37
2022-08-21T04:06:22.198Z,16.37
2022-08-21T04:08:51.986Z,16.30
2022-08-21T04:11:21.921Z,16.35
2022-08-21T04:13:52.318Z,16.36
2022-08-21T04:16:22.164Z,16.48
2022-08-21T04:18:52.029Z,16.48
2022-08-21T04:21:24.226Z,16.39
2022-08-21T04:23:54.853Z,16.11
2022-08-21T04:26:24.791Z,16.00
2022-08-21T04:28:56.503Z,15.94
2022-08-21T04:31:26.937Z,15.89
2022-08-21T04:33:57.840Z,15.87
2022-08-21T04:36:27.750Z,15.78
2022-08-21T04:38:57.530Z,15.83
2022-08-21T04:41:28.126Z,15.72
2022-08-21T04:43:58.106Z,15.82
2022-08-21T04:46:27.873Z,15.82
2022-08-21T04:48:57.721Z,15.94
2022-08-21T04:51:33.239Z,15.82
2022-08-21T04:54:05.828Z,15.94
2022-08-21T04:56:38.379Z,15.94
2022-08-21T04:59:11.578Z,15.89
2022-08-21T05:01:43.991Z,15.91
2022-08-21T05:04:16.760Z,15.83
2022-08-21T05:06:49.996Z,15.93
2022-08-21T05:09:22.278Z,15.87
2022-08-21T05:11:53.163Z,16.02
2022-08-21T05:14:22.956Z,15.85
2022-08-21T05:16:52.730Z,15.60
2022-08-21T05:19:22.610Z,15.78
2022-08-21T05:21:52.450Z,15.85
2022-08-21T05:24:22.221Z,15.87
2022-08-21T05:26:52.007Z,15.73
2022-08-21T05:29:22.594Z,15.80
2022-08-21T05:31:52.644Z,15.89
2022-08-21T05:34:24.258Z,16.04
2022-08-21T05:36:54.046Z,16.07
2022-08-21T05:39:23.602Z,16.01
2022-08-21T05:41:53.426Z,16.16
2022-08-21T05:44:23.149Z,16.08
2022-08-21T05:46:52.939Z,15.85
2022-08-21T05:49:22.439Z,16.06
2022-08-21T05:51:52.222Z,16.12
2022-08-21T05:54:21.951Z,16.13
2022-08-21T05:56:52.683Z,16.17
2022-08-21T05:59:22.881Z,16.31
2022-08-21T06:01:53.770Z,16.49
2022-08-21T06:04:23.368Z,16.62
2022-08-21T06:06:53.329Z,16.11
2022-08-21T06:09:23.095Z,16.35
2022-08-21T06:11:52.879Z,16.27
2022-08-21T06:14:22.665Z,16.40
2022-08-21T06:16:52.458Z,16.60
2022-08-21T06:19:22.312Z,16.64
2022-08-21T06:21:52.092Z,16.89
2022-08-21T06:24:22.188Z,17.30
2022-08-21T06:26:52.010Z,17.43
2022-08-21T06:29:22.018Z,17.62
2022-08-21T06:31:52.945Z,17.88
2022-08-21T06:34:22.739Z,17.98
2022-08-21T06:36:52.504Z,18.24
2022-08-21T06:39:25.426Z,18.47
2022-08-21T06:41:55.877Z,18.46
2022-08-21T06:44:27.548Z,18.70
2022-08-21T06:46:57.720Z,18.90
2022-08-21T06:49:27.479Z,19.52
2022-08-21T06:51:57.368Z,19.52
2022-08-21T06:54:26.852Z,19.15
2022-08-21T06:56:56.388Z,19.46
2022-08-21T06:59:26.232Z,19.28
2022-08-21T07:01:56.462Z,19.47
2022-08-21T07:04:26.408Z,19.51
2022-08-21T07:06:56.261Z,19.64
2022-08-21T07:09:26.121Z,19.79
2022-08-21T07:11:57.605Z,20.00
2022-08-21T07:14:27.083Z,19.75
2022-08-21T07:16:56.885Z,19.94
2022-08-21T07:19:26.436Z,20.12
2022-08-21T07:21:59.971Z,20.53
2022-08-21T07:24:30.219Z,20.34
2022-08-21T07:27:00.051Z,20.31
2022-08-21T07:29:29.892Z,20.57
2022-08-21T07:32:00.029Z,21.01
2022-08-21T07:34:29.860Z,21.20
2022-08-21T07:37:00.276Z,21.33
2022-08-21T07:39:31.822Z,21.49
2022-08-21T07:42:05.141Z,21.31
2022-08-21T07:44:34.790Z,21.83
2022-08-21T07:47:04.897Z,21.83
2022-08-21T07:49:34.690Z,22.53
2022-08-21T07:52:06.535Z,22.04
2022-08-21T07:54:36.389Z,22.07
2022-08-21T07:57:06.446Z,21.85
2022-08-21T07:59:36.300Z,21.82
2022-08-21T08:02:08.106Z,22.32
2022-08-21T08:04:38.361Z,22.18
2022-08-21T08:07:10.001Z,22.04
2022-08-21T08:09:39.811Z,21.81
2022-08-21T08:12:09.712Z,22.18
2022-08-21T08:14:39.604Z,22.54
2022-08-21T08:17:09.425Z,22.83
2022-08-21T08:19:39.826Z,22.83
2022-08-21T08:22:21.359Z,22.68
2022-08-21T08:24:52.117Z,23.30
2022-08-21T08:27:22.626Z,23.84
2022-08-21T08:29:52.856Z,24.02
2022-08-21T08:32:23.675Z,23.41
2022-08-21T08:34:53.430Z,23.46
2022-08-21T08:37:23.561Z,23.46
2022-08-21T08:39:55.385Z,23.46
2022-08-21T08:42:34.042Z,23.72
2022-08-21T08:45:05.451Z,23.26
2022-08-21T08:47:40.916Z,23.34
2022-08-21T08:50:22.356Z,23.34
2022-08-21T08:52:58.736Z,24.28
2022-08-21T08:55:29.122Z,24.64
2022-08-21T08:57:59.362Z,24.76
2022-08-21T09:00:29.146Z,24.90
2022-08-21T09:03:01.763Z,25.30
2022-08-21T09:05:37.612Z,24.57
2022-08-21T09:08:18.854Z,24.54
2022-08-21T09:11:07.981Z,24.80
2022-08-21T09:13:52.868Z,25.10
2022-08-21T09:16:36.761Z,25.09
2022-08-21T09:19:24.890Z,25.06
2022-08-21T09:22:12.280Z,25.09
2022-08-21T09:24:42.528Z,25.26
2022-08-21T09:27:17.750Z,25.42
2022-08-21T09:29:53.286Z,25.93
2022-08-21T09:32:37.433Z,25.66
2022-08-21T09:35:03.711Z,25.71
2022-08-21T09:37:36.177Z,25.63
2022-08-21T09:40:11.272Z,25.46
2022-08-21T09:42:41.058Z,25.46
2022-08-21T09:45:14.626Z,26.13
2022-08-21T09:47:46.431Z,26.34
2022-08-21T09:50:19.268Z,26.28
2022-08-21T09:52:52.335Z,26.67
2022-08-21T09:55:42.482Z,26.65
2022-08-21T09:58:14.148Z,26.36
2022-08-21T10:00:44.356Z,25.92
2022-08-21T10:03:17.132Z,26.43
2022-08-21T10:05:57.680Z,26.44
2022-08-21T10:08:29.886Z,26.84
2022-08-21T10:11:03.574Z,26.67
2022-08-21T10:13:53.868Z,26.78
2022-08-21T10:16:41.048Z,26.38
2022-08-21T10:19:16.494Z,27.04
2022-08-21T10:21:55.028Z,27.05
2022-08-21T10:24:31.559Z,27.06
2022-08-21T10:27:40.297Z,27.41
2022-08-21T10:30:14.336Z,27.52
2022-08-21T10:32:59.731Z,27.36
2022-08-21T10:35:33.206Z,27.32
2022-08-21T10:38:48.810Z,27.09
2022-08-21T10:41:10.191Z,26.43
2022-08-21T10:43:43.035Z,26.78
2022-08-21T10:46:22.296Z,28.12
2022-08-21T10:49:00.796Z,27.61
2022-08-21T10:51:39.130Z,28.30
2022-08-21T10:54:14.182Z,28.30
2022-08-21T10:56:46.918Z,27.75
2022-08-21T10:59:38.640Z,27.95
2022-08-21T11:02:18.961Z,27.71
2022-08-21T11:05:10.859Z,27.75
2022-08-21T11:07:43.398Z,28.92
2022-08-21T11:10:16.640Z,28.15
2022-08-21T11:12:51.639Z,27.68
2022-08-21T11:15:47.346Z,27.76
2022-08-21T11:18:25.990Z,27.26
2022-08-21T11:21:25.573Z,26.79
2022-08-21T11:24:17.082Z,27.49
2022-08-21T11:27:07.746Z,27.81
2022-08-21T11:29:40.188Z,27.93
2022-08-21T11:32:47.077Z,28.65
2022-08-21T11:35:22.201Z,27.76
2022-08-21T11:37:57.185Z,27.49
2022-08-21T11:40:48.812Z,27.71
2022-08-21T11:43:21.607Z,28.66
2022-08-21T11:45:57.003Z,28.35
2022-08-21T11:48:50.302Z,28.53
2022-08-21T11:51:23.107Z,28.33
2022-08-21T11:53:56.085Z,29.28
2022-08-21T11:56:38.014Z,29.35
2022-08-21T11:59:10.692Z,29.66
2022-08-21T12:01:43.546Z,30.18
2022-08-21T12:04:30.807Z,29.79
2022-08-21T12:07:15.712Z,29.71
2022-08-21T12:09:57.137Z,30.14
2022-08-21T12:12:30.328Z,29.36
2022-08-21T12:15:24.041Z,28.89
2022-08-21T12:18:02.636Z,28.67
2022-08-21T12:20:38.148Z,29.21
2022-08-21T12:23:16.948Z,29.33
2022-08-21T12:25:50.051Z,28.84
2022-08-21T12:28:22.558Z,28.68
2022-08-21T12:30:57.467Z,28.17
2022-08-21T12:33:41.905Z,28.07
2022-08-21T12:36:23.257Z,27.75
2022-08-21T12:38:58.652Z,28.40
2022-08-21T12:41:42.803Z,28.48
2022-08-21T12:44:20.945Z,28.70
2022-08-21T12:46:54.050Z,29.03
2022-08-21T12:49:41.277Z,29.86
2022-08-21T12:52:20.678Z,30.06
2022-08-21T12:54:50.527Z,30.14
2022-08-21T12:57:28.954Z,29.87
2022-08-21T13:00:02.312Z,30.12
2022-08-21T13:02:35.981Z,29.88
2022-08-21T13:05:10.672Z,29.60
2022-08-21T13:07:41.998Z,29.60
2022-08-21T13:10:28.273Z,29.91
2022-08-21T13:13:13.218Z,29.62
2022-08-21T13:15:47.766Z,30.58
2022-08-21T13:18:26.726Z,30.52
2022-08-21T13:21:14.725Z,29.42
2022-08-21T13:23:44.830Z,30.29
2022-08-21T13:26:20.186Z,30.51
2022-08-21T13:28:51.689Z,30.44
2022-08-21T13:31:27.294Z,31.10
2022-08-21T13:33:57.993Z,30.33
2022-08-21T13:36:30.722Z,30.13
2022-08-21T13:39:00.446Z,30.79
2022-08-21T13:41:34.538Z,30.79
2022-08-21T13:44:20.773Z,30.23
2022-08-21T13:46:51.787Z,30.23
2022-08-21T13:49:24.355Z,30.10
2022-08-21T13:51:54.357Z,29.42
2022-08-21T13:54:33.011Z,29.76
2022-08-21T13:57:02.944Z,29.95
2022-08-21T13:59:36.147Z,29.40
2022-08-21T14:02:18.379Z,29.33
2022-08-21T14:04:55.230Z,29.30
2022-08-21T14:07:36.693Z,29.68
2022-08-21T14:10:11.079Z,29.77
2022-08-21T14:12:55.544Z,30.14
2022-08-21T14:15:29.450Z,30.14
2022-08-21T14:18:17.054Z,30.15
2022-08-21T14:20:47.558Z,30.40
2022-08-21T14:23:28.412Z,29.69
2022-08-21T14:26:03.433Z,30.09
2022-08-21T14:28:36.412Z,29.99
2022-08-21T14:31:21.313Z,29.49
2022-08-21T14:33:51.782Z,29.26
2022-08-21T14:36:21.253Z,28.90
2022-08-21T14:38:51.393Z,28.82
2022-08-21T14:41:27.016Z,28.49
2022-08-21T14:44:06.003Z,28.20
2022-08-21T14:46:30.530Z,28.53
2022-08-21T14:49:00.625Z,29.07
2022-08-21T14:51:30.394Z,29.71
2022-08-21T14:54:00.162Z,30.03
2022-08-21T14:56:29.998Z,29.60
2022-08-21T14:59:03.573Z,29.46
2022-08-21T15:01:36.425Z,29.40
2022-08-21T15:04:08.117Z,29.35
2022-08-21T15:06:37.901Z,29.37
2022-08-21T15:09:07.743Z,28.71
2022-08-21T15:11:41.352Z,28.53
2022-08-21T15:14:14.270Z,28.79
2022-08-21T15:16:44.035Z,29.01
2022-08-21T15:19:14.102Z,29.01
2022-08-21T15:21:43.932Z,28.88
2022-08-21T15:24:13.566Z,28.81
2022-08-21T15:26:43.680Z,28.53
2022-08-21T15:29:13.519Z,28.33
2022-08-21T15:31:55.389Z,28.10
2022-08-21T15:34:28.250Z,27.37
2022-08-21T15:36:59.652Z,27.47
2022-08-21T15:39:30.041Z,27.72
2022-08-21T15:42:10.386Z,27.75
2022-08-21T15:44:32.777Z,27.69
2022-08-21T15:47:02.389Z,27.11
2022-08-21T15:49:32.923Z,26.71
2022-08-21T15:52:03.073Z,26.70
2022-08-21T15:54:32.845Z,26.68
2022-08-21T15:57:02.981Z,26.68
2022-08-21T15:59:35.809Z,26.84
2022-08-21T16:02:06.724Z,26.30
2022-08-21T16:04:36.491Z,25.72
2022-08-21T16:07:09.526Z,25.72
2022-08-21T16:09:37.793Z,25.71
2022-08-21T16:12:11.905Z,25.71
2022-08-21T16:14:41.818Z,25.59
2022-08-21T16:17:11.685Z,25.88
2022-08-21T16:19:41.593Z,25.95
2022-08-21T16:22:11.591Z,25.93
2022-08-21T16:24:41.360Z,26.12
2022-08-21T16:27:11.832Z,26.08
2022-08-21T16:29:41.782Z,26.02
2022-08-21T16:32:11.961Z,25.91
2022-08-21T16:34:45.073Z,25.83
2022-08-21T16:37:24.485Z,25.97
2022-08-21T16:39:47.478Z,25.98
2022-08-21T16:42:22.845Z,26.11
2022-08-21T16:44:52.961Z,26.05
2022-08-21T16:47:26.713Z,25.76
2022-08-21T16:49:54.351Z,25.53
2022-08-21T16:52:24.118Z,25.50
2022-08-21T16:54:53.641Z,25.74
2022-08-21T16:57:23.848Z,25.49
2022-08-21T16:59:53.855Z,25.53
2022-08-21T17:02:29.700Z,25.78
2022-08-21T17:04:59.482Z,25.81
2022-08-21T17:07:32.118Z,25.77
2022-08-21T17:10:01.202Z,25.63
2022-08-21T17:12:31.313Z,25.84
2022-08-21T17:15:05.109Z,25.93
2022-08-21T17:17:36.101Z,25.60
2022-08-21T17:20:09.054Z,25.27
2022-08-21T17:22:38.892Z,25.33
2022-08-21T17:25:08.852Z,25.09
2022-08-21T17:27:39.925Z,25.36
2022-08-21T17:30:13.465Z,25.39
2022-08-21T17:32:44.960Z,25.47
2022-08-21T17:35:15.735Z,25.56
2022-08-21T17:37:45.570Z,25.32
2022-08-21T17:40:17.009Z,25.36
2022-08-21T17:42:49.355Z,25.34
2022-08-21T17:45:20.902Z,24.74
2022-08-21T17:47:50.612Z,24.17
2022-08-21T17:50:22.849Z,24.17
2022-08-21T17:52:52.226Z,24.47
2022-08-21T17:55:22.965Z,24.23
2022-08-21T17:57:53.834Z,24.07
2022-08-21T18:00:25.132Z,24.07
2022-08-21T18:03:08.910Z,24.32
2022-08-21T18:05:38.676Z,24.31
2022-08-21T18:08:09.632Z,24.24
2022-08-21T18:10:42.218Z,24.61
2022-08-21T18:13:15.519Z,24.41
2022-08-21T18:15:48.335Z,24.44
2022-08-21T18:18:18.225Z,24.28
2022-08-21T18:20:48.266Z,24.28
2022-08-21T18:23:18.456Z,24.35
2022-08-21T18:25:51.279Z,24.15
2022-08-21T18:28:21.977Z,24.24
2022-08-21T18:30:54.276Z,24.26
2022-08-21T18:33:24.421Z,23.92
2022-08-21T18:35:54.246Z,23.92
2022-08-21T18:38:24.735Z,24.10
2022-08-21T18:40:56.566Z,23.67
2022-08-21T18:43:27.607Z,23.54
2022-08-21T18:45:57.829Z,23.56
2022-08-21T18:48:29.277Z,23.68
2022-08-21T18:51:01.133Z,23.58
2022-08-21T18:53:30.973Z,23.58
2022-08-21T18:56:05.303Z,23.68
2022-08-21T18:58:33.900Z,23.78
2022-08-21T19:01:04.180Z,23.77
2022-08-21T19:03:35.578Z,23.73
2022-08-21T19:06:09.623Z,23.60
2022-08-21T19:08:38.309Z,23.51
2022-08-21T19:11:08.895Z,23.52
2022-08-21T19:13:40.006Z,23.63
2022-08-21T19:16:11.621Z,23.54
2022-08-21T19:18:42.422Z,23.44
2022-08-21T19:21:12.641Z,23.40
2022-08-21T19:23:44.418Z,23.38
2022-08-21T19:26:13.876Z,23.19
2022-08-21T19:28:47.275Z,23.21
2022-08-21T19:31:23.695Z,23.22
2022-08-21T19:36:27.509Z,22.98
2022-08-21T19:38:57.458Z,23.04
2022-08-21T19:41:30.586Z,22.98
2022-08-21T19:44:03.439Z,22.71
2022-08-21T19:46:38.594Z,22.80
2022-08-21T19:49:10.419Z,22.78
2022-08-21T19:51:40.500Z,22.72
2022-08-21T19:54:20.922Z,22.60
2022-08-21T19:56:51.310Z,22.25
2022-08-21T19:59:24.981Z,22.25
2022-08-21T20:01:53.804Z,22.51
2022-08-21T20:04:24.213Z,22.34
2022-08-21T20:06:56.243Z,22.40
2022-08-21T20:09:26.015Z,22.36
2022-08-21T20:11:59.599Z,22.24
2022-08-21T20:14:32.498Z,22.24
2022-08-21T20:17:05.988Z,22.24
2022-08-21T20:19:36.666Z,22.11
2022-08-21T20:22:09.769Z,22.11
2022-08-21T20:24:41.958Z,22.01
2022-08-21T20:27:15.337Z,21.93
2022-08-21T20:29:45.795Z,21.88
2022-08-21T20:32:16.582Z,22.01
2022-08-21T20:34:46.899Z,21.88
2022-08-21T20:37:22.083Z,21.89
2022-08-21T20:39:49.993Z,21.91
2022-08-21T20:42:19.979Z,21.97
2022-08-21T20:44:50.110Z,21.85
2022-08-21T20:47:20.064Z,21.93
2022-08-21T20:49:53.545Z,21.80
2022-08-21T20:52:25.793Z,21.71
2022-08-21T20:55:04.758Z,21.65
2022-08-21T20:57:51.098Z,21.57
2022-08-21T21:00:21.713Z,21.48
2022-08-21T21:02:54.594Z,21.59
2022-08-21T21:05:28.045Z,21.53
2022-08-21T21:08:04.007Z,21.49
2022-08-21T21:10:51.505Z,21.29
2022-08-21T21:13:27.551Z,21.23
2022-08-21T21:16:05.873Z,21.24
2022-08-21T21:18:44.317Z,21.18
2022-08-21T21:21:37.087Z,20.98
2022-08-21T21:24:12.187Z,20.97
2022-08-21T21:26:53.901Z,20.98
2022-08-21T21:29:38.660Z,20.99
2022-08-21T21:32:17.785Z,21.10
2022-08-21T21:34:47.149Z,21.15
2022-08-21T21:37:45.838Z,20.97
2022-08-21T21:40:35.267Z,21.04
2022-08-21T21:43:20.148Z,21.01
2022-08-21T21:46:10.044Z,20.94
2022-08-21T21:48:45.463Z,21.06
2022-08-21T21:51:45.332Z,20.90
2022-08-21T21:54:46.851Z,20.77
2022-08-21T21:57:52.650Z,20.78
2022-08-21T22:00:27.755Z,20.90
2022-08-21T22:06:08.974Z,20.88
2022-08-21T22:08:51.813Z,20.73
2022-08-21T22:11:42.002Z,20.88
2022-08-21T22:14:16.404Z,20.88
2022-08-21T22:16:50.228Z,20.98
2022-08-21T22:19:30.531Z,20.83
2022-08-21T22:22:12.630Z,20.85
2022-08-21T22:24:46.822Z,20.88
2022-08-21T22:27:25.653Z,20.76
2022-08-21T22:30:00.267Z,20.73
2022-08-21T22:32:45.662Z,20.67
2022-08-21T22:35:21.135Z,20.67
2022-08-21T22:37:53.736Z,20.74
2022-08-21T22:40:35.263Z,20.68
2022-08-21T22:43:13.868Z,20.72
2022-08-21T22:46:07.193Z,20.81
2022-08-21T22:48:46.415Z,20.71
2022-08-21T22:51:14.914Z,20.78
2022-08-21T22:53:46.363Z,20.60
2022-08-21T22:56:20.571Z,20.69
2022-08-21T22:59:02.230Z,20.62
2022-08-21T23:01:35.708Z,20.62
2022-08-21T23:04:16.803Z,20.66
2022-08-21T23:06:58.093Z,20.69
2022-08-21T23:09:37.884Z,20.65
2022-08-21T23:12:34.129Z,20.65
2022-08-21T23:15:05.410Z,20.72
2022-08-21T23:20:32.524Z,20.65
2022-08-21T23:23:20.058Z,20.58
2022-08-21T23:26:26.033Z,20.76
2022-08-21T23:29:24.767Z,20.77
2022-08-21T23:31:49.901Z,20.71
2022-08-21T23:34:37.819Z,20.75
2022-08-21T23:37:48.591Z,20.64
2022-08-21T23:40:13.530Z,20.74
2022-08-21T23:42:47.198Z,20.58
2022-08-21T23:45:33.019Z,20.62
2022-08-21T23:48:19.743Z,20.60
2022-08-21T23:50:50.531Z,20.61
2022-08-21T23:53:26.159Z,20.68
2022-08-21T23:56:07.737Z,20.65
2022-08-21T23:59:00.058Z,20.66
